Penkridge, United Kingdom
Current Conditions -  °F | °C
As of 5:50 PM on Tuesday 21 Oct 2014 (Local Time) from EGOS Reporting Station
Scattered Clouds Scattered Clouds  
Wind Chill: 38°   Ceiling: Unl
Heat Index: 46°   Visibility: 6mi
Dew Point: 37°   Wind: 24mph
Humidity: 71%   Direction: 290°WNW
Pressure: 29.94"   Gusts: 37mph
Location:  52.73°N, 2.12°W
Report Text: EGOS 211650Z 29021G32KT 9999 FEW018CB SCT045 08/03 Q1014 BLU NOSIG
Loading
Personal Weather Stations






























Interactive Weather Map
Tropical Storm Tracking
New forecast layout! Learn more

10-Day Weather Forecast

Advertisements
Track Severe Weather on mobile